KLSE

La Crosse Regional  Airport

La Crosse, Wisconsin, USA

KLSE 241553Z 16009KT 10SM CLR 12/02 A2943 RMK AO2 SLP968 T01170022

Observed Flight Rules
Nov-24 @ 15:53 UTC (54 minutes ago)
 
Visual Flight Rules
Wind Visibility Clouds
160° at 9 knots 10 miles
  • Clear skies
Temperatures Readings
Current 12°C / 54°F
Dewpoint 2°C / 36°F
Humidity 51%
Altimeter 29.43" Hg
Pressure 996.8 hPa
Elevation 199
Observed Flight Rules
Nov-24 @ 15:53 UTC
(54 minutes ago)
 
VFR
Wind Visibility
160° at 9 knots 10 miles
Clouds
  • Clear skies
Temperature Dewpoint
12°C / 54°F 2°C / 36°F
Humidity Altimeter Pressure
51% 29.43" Hg 996.8 hPa